地図

経路データ

SID SEASON NUMBER BASIN SUBBASIN NAME ISO_TIME NATURE LAT LON WMO_WIND WMO_PRES WMO_AGENCY TRACK_TYPE DIST2LAND LANDFALL IFLAG USA_AGENCY USA_ATCF_ID USA_LAT USA_LON USA_RECORD USA_STATUS USA_WIND USA_PRES USA_SSHS USA_R34_NE USA_R34_SE USA_R34_SW USA_R34_NW USA_R50_NE USA_R50_SE USA_R50_SW USA_R50_NW USA_R64_NE USA_R64_SE USA_R64_SW USA_R64_NW USA_POCI USA_ROCI USA_RMW USA_EYE TOKYO_LAT TOKYO_LON TOKYO_GRADE TOKYO_WIND TOKYO_PRES TOKYO_R50_DIR TOKYO_R50_LONG TOKYO_R50_SHORT TOKYO_R30_DIR TOKYO_R30_LONG TOKYO_R30_SHORT TOKYO_LAND CMA_LAT CMA_LON CMA_CAT CMA_WIND CMA_PRES HKO_LAT HKO_LON HKO_CAT HKO_WIND HKO_PRES NEWDELHI_LAT NEWDELHI_LON NEWDELHI_GRADE NEWDELHI_WIND NEWDELHI_PRES NEWDELHI_CI NEWDELHI_DP NEWDELHI_POCI REUNION_LAT REUNION_LON REUNION_TYPE REUNION_WIND REUNION_PRES REUNION_TNUM REUNION_CI REUNION_RMW REUNION_R34_NE REUNION_R34_SE REUNION_R34_SW REUNION_R34_NW REUNION_R50_NE REUNION_R50_SE REUNION_R50_SW REUNION_R50_NW REUNION_R64_NE REUNION_R64_SE REUNION_R64_SW REUNION_R64_NW BOM_LAT BOM_LON BOM_TYPE BOM_WIND BOM_PRES BOM_TNUM BOM_CI BOM_RMW BOM_R34_NE BOM_R34_SE BOM_R34_SW BOM_R34_NW BOM_R50_NE BOM_R50_SE BOM_R50_SW BOM_R50_NW BOM_R64_NE BOM_R64_SE BOM_R64_SW BOM_R64_NW BOM_ROCI BOM_POCI BOM_EYE BOM_POS_METHOD BOM_PRES_METHOD NADI_LAT NADI_LON NADI_CAT NADI_WIND NADI_PRES WELLINGTON_LAT WELLINGTON_LON WELLINGTON_WIND WELLINGTON_PRES DS824_LAT DS824_LON DS824_STAGE DS824_WIND DS824_PRES TD9636_LAT TD9636_LON TD9636_STAGE TD9636_WIND TD9636_PRES TD9635_LAT TD9635_LON TD9635_WIND TD9635_PRES TD9635_ROCI NEUMANN_LAT NEUMANN_LON NEUMANN_CLASS NEUMANN_WIND NEUMANN_PRES MLC_LAT MLC_LON MLC_CLASS MLC_WIND MLC_PRES USA_GUST BOM_GUST BOM_GUST_PER REUNION_GUST REUNION_GUST_PER USA_SEAHGT USA_SEARAD_NE USA_SEARAD_SE USA_SEARAD_SW USA_SEARAD_NW STORM_SPEED STORM_DIR
1996289N13280 1996 99 NA CS LILI 1996-10-14 12:00:00 TS 12.8000 -80.4000 25 1006 hurdat_atl main 336 311 O_____________ hurdat_atl AL121996 12.8000 -80.4000 TD 25 1006 -1 8 320
1996289N13280 1996 99 NA CS LILI 1996-10-14 15:00:00 TS 13.0901 -80.6499 main 311 268 P_____________ AL121996 13.0901 -80.6499 TD 25 1005 -1 8 321
1996289N13280 1996 99 NA CS LILI 1996-10-14 18:00:00 TS 13.4000 -80.9000 25 1005 hurdat_atl main 268 236 O_____________ hurdat_atl AL121996 13.4000 -80.9000 TD 25 1005 -1 8 323
1996289N13280 1996 99 NA CS LILI 1996-10-14 21:00:00 TS 13.7425 -81.1501 main 226 195 P_____________ AL121996 13.7425 -81.1501 TD 25 1005 -1 9 325
1996289N13280 1996 99 NA CS LILI 1996-10-15 00:00:00 TS 14.1000 -81.4000 25 1005 hurdat_atl main 195 172 O_____________ hurdat_atl AL121996 14.1000 -81.4000 TD 25 1005 -1 9 326
1996289N13280 1996 99 NA CS LILI 1996-10-15 03:00:00 TS 14.4574 -81.6426 main 170 130 P_____________ AL121996 14.4574 -81.6426 TD 25 1005 -1 9 325
1996289N13280 1996 99 NA CS LILI 1996-10-15 06:00:00 TS 14.8000 -81.9000 25 1005 hurdat_atl main 130 97 O_____________ hurdat_atl AL121996 14.8000 -81.9000 TD 25 1005 -1 8 320
1996289N13280 1996 99 NA CS LILI 1996-10-15 09:00:00 TS 15.1000 -82.1926 main 97 78 P_____________ AL121996 15.1000 -82.1926 TD 27 1004 -1 8 316
1996289N13280 1996 99 NA CS LILI 1996-10-15 12:00:00 TS 15.4000 -82.5000 30 1004 hurdat_atl main 78 77 O_____________ hurdat_atl AL121996 15.4000 -82.5000 TD 30 1004 -1 9 317
1996289N13280 1996 99 NA CS LILI 1996-10-15 15:00:00 TS 15.7425 -82.8150 main 78 77 P_____________ AL121996 15.7425 -82.8150 TD 30 1003 -1 9 320
1996289N13280 1996 99 NA CS LILI 1996-10-15 18:00:00 TS 16.1000 -83.1000 30 1003 hurdat_atl main 95 95 O_____________ hurdat_atl AL121996 16.1000 -83.1000 TD 30 1003 -1 9 325
1996289N13280 1996 99 NA CS LILI 1996-10-15 21:00:00 TS 16.4499 -83.3226 main 116 116 P_____________ AL121996 16.4499 -83.3226 TD 30 1001 -1 8 331
1996289N13280 1996 99 NA CS LILI 1996-10-16 00:00:00 TS 16.8000 -83.5000 30 999 hurdat_atl main 140 140 O_____________ hurdat_atl AL121996 16.8000 -83.5000 TD 30 999 -1 8 334
1996289N13280 1996 99 NA CS LILI 1996-10-16 03:00:00 TS 17.1500 -83.6800 main 169 158 P_____________ AL121996 17.1500 -83.6800 TD 32 998 -1 8 338
1996289N13280 1996 99 NA CS LILI 1996-10-16 06:00:00 TS 17.5000 -83.8000 35 998 hurdat_atl main 197 197 O_____________ hurdat_atl AL121996 17.5000 -83.8000 TS 35 998 0 8 354
1996289N13280 1996 99 NA CS LILI 1996-10-16 09:00:00 TS 17.8949 -83.7703 main 240 240 P_____________ AL121996 17.8949 -83.7703 TS 40 998 0 7 0
1996289N13280 1996 99 NA CS LILI 1996-10-16 12:00:00 TS 18.2000 -83.8000 45 998 hurdat_atl main 273 271 O_____________ hurdat_atl AL121996 18.2000 -83.8000 TS 45 998 0 6 317
1996289N13280 1996 99 NA CS LILI 1996-10-16 15:00:00 TS 18.3103 -84.1725 main 273 269 P_____________ AL121996 18.3103 -84.1725 TS 47 997 0 7 279
1996289N13280 1996 99 NA CS LILI 1996-10-16 18:00:00 TS 18.3000 -84.5000 50 996 hurdat_atl main 269 258 O_____________ hurdat_atl AL121996 18.3000 -84.5000 TS 50 996 0 3 249
1996289N13280 1996 99 NA CS LILI 1996-10-16 21:00:00 TS 18.2124 -84.4398 main 259 259 P_____________ AL121996 18.2124 -84.4398 TS 52 994 0 3 109
1996289N13280 1996 99 NA CS LILI 1996-10-17 00:00:00 TS 18.2000 -84.2000 55 992 hurdat_atl main 262 262 O_____________ hurdat_atl AL121996 18.2000 -84.2000 TS 55 992 0 5 65
1996289N13280 1996 99 NA CS LILI 1996-10-17 03:00:00 TS 18.4326 -83.9427 main 292 292 P_____________ AL121996 18.4326 -83.9427 TS 57 991 0 8 38
1996289N13280 1996 99 NA CS LILI 1996-10-17 06:00:00 TS 18.8000 -83.7000 60 990 hurdat_atl main 305 259 O_____________ hurdat_atl AL121996 18.8000 -83.7000 TS 60 990 0 8 24
1996289N13280 1996 99 NA CS LILI 1996-10-17 09:00:00 TS 19.1774 -83.5922 main 259 214 P_____________ AL121996 19.1774 -83.5922 TS 62 988 0 8 13
1996289N13280 1996 99 NA CS LILI 1996-10-17 12:00:00 TS 19.6000 -83.5000 65 987 hurdat_atl main 214 164 O_____________ hurdat_atl AL121996 19.6000 -83.5000 HU 65 987 1 9 17
1996289N13280 1996 99 NA CS LILI 1996-10-17 15:00:00 TS 20.0500 -83.3076 main 154 105 P_____________ AL121996 20.0500 -83.3076 HU 67 985 1 10 23
1996289N13280 1996 99 NA CS LILI 1996-10-17 18:00:00 TS 20.5000 -83.1000 70 984 hurdat_atl main 105 59 O_____________ hurdat_atl AL121996 20.5000 -83.1000 HU 70 984 1 9 20
1996289N13280 1996 99 NA CS LILI 1996-10-17 21:00:00 TS 20.9299 -82.9648 main 59 11 P_____________ AL121996 20.9299 -82.9648 HU 70 983 1 9 19
1996289N13280 1996 99 NA CS LILI 1996-10-18 00:00:00 TS 21.3000 -82.8000 70 982 hurdat_atl main 11 10 O_____________ hurdat_atl AL121996 21.3000 -82.8000 HU 70 982 1 8 36
1996289N13280 1996 99 NA CS LILI 1996-10-18 03:00:00 TS 21.5366 -82.4960 main 11 0 P_____________ AL121996 21.5366 -82.4960 HU 72 981 1 8 48
1996289N13280 1996 99 NA CS LILI 1996-10-18 06:00:00 TS 21.8000 -82.2000 75 980 hurdat_atl main 38 15 O_____________ hurdat_atl AL121996 21.8000 -82.2000 HU 75 980 1 8 30
1996289N13280 1996 99 NA CS LILI 1996-10-18 09:00:00 TS 22.2479 -82.0575 main 15 0 P_____________ AL121996 22.2479 -82.0575 HU 83 975 2 9 20
1996289N13280 1996 99 NA CS LILI 1996-10-18 09:30:00 TS 22.3000 -82.0000 85 975 hurdat_atl main 0 0 O_____________ hurdat_atl AL121996 22.3000 -82.0000 L HU 85 975 2 11 74
1996289N13280 1996 99 NA NA LILI 1996-10-18 12:00:00 TS 22.4000 -81.5000 85 975 hurdat_atl main 0 0 O_____________ hurdat_atl AL121996 22.4000 -81.5000 HU 85 975 2 12 83
1996289N13280 1996 99 NA NA LILI 1996-10-18 15:00:00 TS 22.4383 -80.8019 main 0 0 P_____________ AL121996 22.4383 -80.8019 HU 82 975 1 14 86
1996289N13280 1996 99 NA NA LILI 1996-10-18 18:00:00 TS 22.5000 -80.0000 80 975 hurdat_atl main 0 0 O_____________ hurdat_atl AL121996 22.5000 -80.0000 HU 80 975 1 16 80
1996289N13280 1996 99 NA NA LILI 1996-10-18 21:00:00 TS 22.7196 -79.1377 main 42 42 P_____________ AL121996 22.7196 -79.1377 HU 82 975 1 17 73
1996289N13280 1996 99 NA NA LILI 1996-10-19 00:00:00 TS 23.0000 -78.2000 85 975 hurdat_atl main 80 80 O_____________ hurdat_atl AL121996 23.0000 -78.2000 HU 85 975 2 18 74
1996289N13280 1996 99 NA NA LILI 1996-10-19 03:00:00 TS 23.2194 -77.2288 main 138 136 P_____________ AL121996 23.2194 -77.2288 HU 87 972 2 19 75
1996289N13280 1996 99 NA NA LILI 1996-10-19 06:00:00 TS 23.5000 -76.2000 90 970 hurdat_atl main 188 188 O_____________ hurdat_atl AL121996 23.5000 -76.2000 HU 90 970 2 20 70
1996289N13280 1996 99 NA NA LILI 1996-10-19 09:00:00 TS 23.9041 -75.1368 main 271 271 P_____________ AL121996 23.9041 -75.1368 HU 95 965 2 22 66
1996289N13280 1996 99 NA NA LILI 1996-10-19 12:00:00 TS 24.4000 -74.0000 100 960 hurdat_atl main 366 364 O_____________ hurdat_atl AL121996 24.4000 -74.0000 HU 100 960 3 24 65
1996289N13280 1996 99 NA NA LILI 1996-10-19 15:00:00 TS 24.9120 -72.7713 main 414 414 P_____________ AL121996 24.9120 -72.7713 HU 95 961 2 25 64
1996289N13280 1996 99 NA NA LILI 1996-10-19 18:00:00 TS 25.5000 -71.5000 90 962 hurdat_atl main 504 504 O_____________ hurdat_atl AL121996 25.5000 -71.5000 HU 90 962 2 26 61
1996289N13280 1996 99 NA NA LILI 1996-10-19 21:00:00 TS 26.1773 -70.2125 main 627 627 P_____________ AL121996 26.1773 -70.2125 HU 85 963 2 26 58
1996289N13280 1996 99 NA NA LILI 1996-10-20 00:00:00 TS 26.9000 -69.0000 80 964 hurdat_atl main 755 755 O_____________ hurdat_atl AL121996 26.9000 -69.0000 HU 80 964 1 25 55
1996289N13280 1996 99 NA NA LILI 1996-10-20 03:00:00 TS 27.6059 -67.9608 main 875 875 P_____________ AL121996 27.6059 -67.9608 HU 80 966 1 23 52
1996289N13280 1996 99 NA NA LILI 1996-10-20 06:00:00 TS 28.3000 -67.0000 80 968 hurdat_atl main 997 997 O_____________ hurdat_atl AL121996 28.3000 -67.0000 HU 80 968 1 22 52
1996289N13280 1996 99 NA NA LILI 1996-10-20 09:00:00 TS 28.9716 -66.0064 main 1119 1119 P_____________ AL121996 28.9716 -66.0064 HU 82 964 1 22 53
1996289N13280 1996 99 NA NA LILI 1996-10-20 12:00:00 TS 29.6000 -65.0000 85 960 hurdat_atl main 1198 1198 O_____________ hurdat_atl AL121996 29.6000 -65.0000 HU 85 960 2 21 56
1996289N13280 1996 99 NA NA LILI 1996-10-20 15:00:00 TS 30.1568 -63.9558 main 1237 1237 P_____________ AL121996 30.1568 -63.9558 HU 80 965 1 21 59
1996289N13280 1996 99 NA NA LILI 1996-10-20 18:00:00 TS 30.7000 -62.9000 75 970 hurdat_atl main 1298 1298 O_____________ hurdat_atl AL121996 30.7000 -62.9000 HU 75 970 1 22 58
1996289N13280 1996 99 NA NA LILI 1996-10-20 21:00:00 TS 31.2998 -61.8198 main 1361 1347 P_____________ AL121996 31.2998 -61.8198 HU 75 975 1 22 56
1996289N13280 1996 99 NA NA LILI 1996-10-21 00:00:00 TS 31.9000 -60.8000 75 980 hurdat_atl main 1350 1311 O_____________ hurdat_atl AL121996 31.9000 -60.8000 HU 75 980 1 20 54
1996289N13280 1996 99 NA NA LILI 1996-10-21 03:00:00 TS 32.4869 -59.8821 main 1311 1286 P_____________ AL121996 32.4869 -59.8821 HU 72 982 1 18 53
1996289N13280 1996 99 NA NA LILI 1996-10-21 06:00:00 TS 33.0000 -59.1000 70 985 hurdat_atl main 1286 1269 O_____________ hurdat_atl AL121996 33.0000 -59.1000 HU 70 985 1 15 53
1996289N13280 1996 99 NA NA LILI 1996-10-21 09:00:00 TS 33.4093 -58.4391 main 1273 1259 P_____________ AL121996 33.4093 -58.4391 HU 67 985 1 12 55
1996289N13280 1996 99 NA NA LILI 1996-10-21 12:00:00 TS 33.7000 -57.9000 65 986 hurdat_atl main 1264 1258 O_____________ hurdat_atl AL121996 33.7000 -57.9000 HU 65 986 1 10 59
1996289N13280 1996 99 NA NA LILI 1996-10-21 15:00:00 TS 33.9019 -57.4420 main 1267 1262 P_____________ AL121996 33.9019 -57.4420 HU 65 986 1 8 68
1996289N13280 1996 99 NA NA LILI 1996-10-21 18:00:00 TS 34.0000 -57.0000 65 987 hurdat_atl main 1276 1276 O_____________ hurdat_atl AL121996 34.0000 -57.0000 HU 65 987 1 8 81
1996289N13280 1996 99 NA NA LILI 1996-10-21 21:00:00 TS 34.0378 -56.4348 main 1306 1306 P_____________ AL121996 34.0378 -56.4348 HU 65 987 1 9 90
1996289N13280 1996 99 NA NA LILI 1996-10-22 00:00:00 TS 34.0000 -55.9000 65 987 hurdat_atl main 1322 1322 O_____________ hurdat_atl AL121996 34.0000 -55.9000 HU 65 987 1 8 100
1996289N13280 1996 99 NA NA LILI 1996-10-22 03:00:00 TS 33.9072 -55.5123 main 1344 1344 P_____________ AL121996 33.9072 -55.5123 HU 65 987 1 6 109
1996289N13280 1996 99 NA NA LILI 1996-10-22 06:00:00 TS 33.8000 -55.2000 65 987 hurdat_atl main 1364 1364 O_____________ hurdat_atl AL121996 33.8000 -55.2000 HU 65 987 1 5 107
1996289N13280 1996 99 NA NA LILI 1996-10-22 09:00:00 TS 33.7499 -54.8927 main 1384 1384 P_____________ AL121996 33.7499 -54.8927 HU 65 987 1 5 101
1996289N13280 1996 99 NA NA LILI 1996-10-22 12:00:00 TS 33.7000 -54.6000 65 987 hurdat_atl main 1394 1394 O_____________ hurdat_atl AL121996 33.7000 -54.6000 HU 65 987 1 5 106
1996289N13280 1996 99 NA NA LILI 1996-10-22 15:00:00 TS 33.6001 -54.2623 main 1415 1415 P_____________ AL121996 33.6001 -54.2623 HU 65 987 1 5 112
1996289N13280 1996 99 NA NA LILI 1996-10-22 18:00:00 TS 33.5000 -54.0000 65 987 hurdat_atl main 1436 1436 O_____________ hurdat_atl AL121996 33.5000 -54.0000 HU 65 987 1 3 117
1996289N13280 1996 99 NA NA LILI 1996-10-22 21:00:00 TS 33.4499 -53.9126 main 1450 1450 P_____________ AL121996 33.4499 -53.9126 HU 65 987 1 1 143
1996289N13280 1996 99 NA NA LILI 1996-10-23 00:00:00 TS 33.4000 -53.9000 65 987 hurdat_atl main 1450 1450 O_____________ hurdat_atl AL121996 33.4000 -53.9000 HU 65 987 1 2 161
1996289N13280 1996 99 NA NA LILI 1996-10-23 03:00:00 TS 33.3000 -53.8500 main 1463 1463 P_____________ AL121996 33.3000 -53.8500 HU 65 986 1 2 157
1996289N13280 1996 99 NA NA LILI 1996-10-23 06:00:00 TS 33.2000 -53.8000 65 985 hurdat_atl main 1474 1474 O_____________ hurdat_atl AL121996 33.2000 -53.8000 HU 65 985 1 2 162
1996289N13280 1996 99 NA NA LILI 1996-10-23 09:00:00 TS 33.1199 -53.7799 main 1484 1484 P_____________ AL121996 33.1199 -53.7799 HU 65 983 1 1 143
1996289N13280 1996 99 NA NA LILI 1996-10-23 12:00:00 TS 33.1000 -53.7000 65 981 hurdat_atl main 1488 1485 O_____________ hurdat_atl AL121996 33.1000 -53.7000 HU 65 981 1 3 81
1996289N13280 1996 99 NA NA LILI 1996-10-23 15:00:00 TS 33.1626 -53.4725 main 1485 1480 P_____________ AL121996 33.1626 -53.4725 HU 67 980 1 5 65
1996289N13280 1996 99 NA NA LILI 1996-10-23 18:00:00 TS 33.3000 -53.2000 70 979 hurdat_atl main 1480 1457 O_____________ hurdat_atl AL121996 33.3000 -53.2000 HU 70 979 1 5 51
1996289N13280 1996 99 NA NA LILI 1996-10-23 21:00:00 TS 33.4925 -52.9851 main 1457 1435 P_____________ AL121996 33.4925 -52.9851 HU 70 979 1 5 40
1996289N13280 1996 99 NA NA LILI 1996-10-24 00:00:00 TS 33.7000 -52.8000 70 979 hurdat_atl main 1435 1413 O_____________ hurdat_atl AL121996 33.7000 -52.8000 HU 70 979 1 5 34
1996289N13280 1996 99 NA NA LILI 1996-10-24 03:00:00 TS 33.8798 -52.6649 main 1413 1403 P_____________ AL121996 33.8798 -52.6649 HU 70 979 1 4 40
1996289N13280 1996 99 NA NA LILI 1996-10-24 06:00:00 TS 34.0000 -52.5000 70 979 hurdat_atl main 1403 1403 O_____________ hurdat_atl AL121996 34.0000 -52.5000 HU 70 979 1 4 69
1996289N13280 1996 99 NA NA LILI 1996-10-24 09:00:00 TS 34.0150 -52.2298 main 1404 1404 P_____________ AL121996 34.0150 -52.2298 HU 70 979 1 5 90
1996289N13280 1996 99 NA NA LILI 1996-10-24 12:00:00 TS 34.0000 -51.9000 70 979 hurdat_atl main 1406 1406 O_____________ hurdat_atl AL121996 34.0000 -51.9000 HU 70 979 1 5 88
1996289N13280 1996 99 NA NA LILI 1996-10-24 15:00:00 TS 34.0345 -51.6023 main 1408 1398 P_____________ AL121996 34.0345 -51.6023 HU 72 979 1 6 80
1996289N13280 1996 99 NA NA LILI 1996-10-24 18:00:00 TS 34.1000 -51.2000 75 979 hurdat_atl main 1401 1401 O_____________ hurdat_atl AL121996 34.1000 -51.2000 HU 75 979 1 8 81
1996289N13280 1996 99 NA NA LILI 1996-10-24 21:00:00 TS 34.1541 -50.6535 main 1395 1393 P_____________ AL121996 34.1541 -50.6535 HU 77 978 1 11 79
1996289N13280 1996 99 NA NA LILI 1996-10-25 00:00:00 TS 34.3000 -49.9000 80 977 hurdat_atl main 1396 1378 O_____________ hurdat_atl AL121996 34.3000 -49.9000 HU 80 977 1 15 72
1996289N13280 1996 99 NA NA LILI 1996-10-25 03:00:00 TS 34.6049 -48.9326 main 1382 1364 P_____________ AL121996 34.6049 -48.9326 HU 80 975 1 19 68
1996289N13280 1996 99 NA NA LILI 1996-10-25 06:00:00 TS 35.0000 -47.8000 80 973 hurdat_atl main 1367 1360 O_____________ hurdat_atl AL121996 35.0000 -47.8000 HU 80 973 1 20 69
1996289N13280 1996 99 NA NA LILI 1996-10-25 09:00:00 TS 35.3476 -46.5979 main 1372 1360 P_____________ AL121996 35.3476 -46.5979 HU 82 971 1 21 68
1996289N13280 1996 99 NA NA LILI 1996-10-25 12:00:00 TS 35.8000 -45.4000 85 970 hurdat_atl main 1364 1343 O_____________ hurdat_atl AL121996 35.8000 -45.4000 HU 85 970 2 22 58
1996289N13280 1996 99 NA NA LILI 1996-10-25 15:00:00 TS 36.4906 -44.3432 main 1342 1319 P_____________ AL121996 36.4906 -44.3432 HU 82 970 1 22 50
1996289N13280 1996 99 NA NA LILI 1996-10-25 18:00:00 TS 37.2000 -43.3000 80 971 hurdat_atl main 1324 1320 O_____________ hurdat_atl AL121996 37.2000 -43.3000 HU 80 971 1 21 56
1996289N13280 1996 99 NA NA LILI 1996-10-25 21:00:00 TS 37.6720 -42.1542 main 1337 1337 P_____________ AL121996 37.6720 -42.1542 HU 77 973 1 20 64
1996289N13280 1996 99 NA NA LILI 1996-10-26 00:00:00 TS 38.1000 -41.0000 75 975 hurdat_atl main 1372 1370 O_____________ hurdat_atl AL121996 38.1000 -41.0000 HU 75 975 1 20 61
1996289N13280 1996 99 NA NA LILI 1996-10-26 03:00:00 TS 38.6169 -39.9489 main 1399 1396 P_____________ AL121996 38.6169 -39.9489 HU 72 976 1 20 57
1996289N13280 1996 99 NA NA LILI 1996-10-26 06:00:00 TS 39.2000 -38.8000 70 978 hurdat_atl main 1424 1423 O_____________ hurdat_atl AL121996 39.2000 -38.8000 HU 70 978 1 23 60
1996289N13280 1996 99 NA NA LILI 1996-10-26 09:00:00 TS 39.7989 -37.3281 main 1481 1481 P_____________ AL121996 39.7989 -37.3281 HU 67 978 1 26 61
1996289N13280 1996 99 NA NA LILI 1996-10-26 12:00:00 TS 40.5000 -35.8000 65 979 hurdat_atl main 1541 1541 O_____________ hurdat_atl AL121996 40.5000 -35.8000 HU 65 979 1 27 55
1996289N13280 1996 99 NA NA LILI 1996-10-26 15:00:00 TS 41.3448 -34.4739 main 1584 1584 P_____________ AL121996 41.3448 -34.4739 HU 62 979 0 27 47
1996289N13280 1996 99 NA NA LILI 1996-10-26 18:00:00 TS 42.3000 -33.2000 60 980 hurdat_atl main 1622 1622 O_____________ hurdat_atl AL121996 42.3000 -33.2000 TS 60 980 0 27 45
1996289N13280 1996 99 NA NA LILI 1996-10-26 21:00:00 TS 43.2821 -31.8970 main 1670 1670 P_____________ AL121996 43.2821 -31.8970 TS 57 979 0 28 45
1996289N13280 1996 99 NA NA LILI 1996-10-27 00:00:00 TS 44.3000 -30.5000 55 978 hurdat_atl main 1696 1542 O_____________ hurdat_atl AL121996 44.3000 -30.5000 TS 55 978 0 29 46
1996289N13280 1996 99 NA NA LILI 1996-10-27 03:00:00 TS 45.3043 -28.9487 main 1529 1371 P_____________ AL121996 45.3043 -28.9487 TS 55 979 0 31 49
1996289N13280 1996 99 NA NA LILI 1996-10-27 06:00:00 ET 46.3000 -27.2000 55 980 hurdat_atl main 1358 1183 O_____________ hurdat_atl AL121996 46.3000 -27.2000 EX 55 980 -4 32 53
1996289N13280 1996 99 NA NA LILI 1996-10-27 09:00:00 ET 47.2421 -25.2031 main 1177 997 P_____________ AL121996 47.2421 -25.2031 EX 55 979 -4 34 56
1996289N13280 1996 99 NA NA LILI 1996-10-27 12:00:00 ET 48.2000 -23.1000 55 978 hurdat_atl main 986 805 O_____________ hurdat_atl AL121996 48.2000 -23.1000 EX 55 978 -4 34 55
1996289N13280 1996 99 NA NA LILI 1996-10-27 15:00:00 ET 49.2261 -21.0005 main 798 630 P_____________ AL121996 49.2261 -21.0005 EX 55 975 -4 34 52
1996289N13280 1996 99 NA NA LILI 1996-10-27 18:00:00 ET 50.3000 -19.0000 55 973 hurdat_atl main 620 471 O_____________ hurdat_atl AL121996 50.3000 -19.0000 EX 55 973 -4 33 47
1996289N13280 1996 99 NA NA LILI 1996-10-27 21:00:00 ET 51.4549 -17.2026 main 462 346 P_____________ AL121996 51.4549 -17.2026 EX 55 973 -4 31 45
1996289N13280 1996 99 NA NA LILI 1996-10-28 00:00:00 ET 52.5000 -15.5000 55 973 hurdat_atl main 341 244 O_____________ hurdat_atl AL121996 52.5000 -15.5000 EX 55 973 -4 28 48
1996289N13280 1996 99 NA NA LILI 1996-10-28 03:00:00 ET 53.2934 -13.8204 main 237 132 P_____________ AL121996 53.2934 -13.8204 EX 55 973 -4 25 58
1996289N13280 1996 99 NA NA LILI 1996-10-28 06:00:00 ET 53.8000 -12.0000 55 973 hurdat_atl main 126 0 O_____________ hurdat_atl AL121996 53.8000 -12.0000 EX 55 973 -4 25 74
1996289N13280 1996 99 NA NA LILI 1996-10-28 09:00:00 ET 53.9615 -9.77251 main 0 0 P_____________ AL121996 53.9615 -9.77251 EX 55 971 -4 26 86
1996289N13280 1996 99 NA NA LILI 1996-10-28 12:00:00 ET 54.0000 -7.50000 55 970 hurdat_atl main 0 0 O_____________ hurdat_atl AL121996 54.0000 -7.50000 EX 55 970 -4 25 82
1996289N13280 1996 99 NA NA LILI 1996-10-28 15:00:00 ET 54.2951 -5.51157 main 0 0 P_____________ AL121996 54.2951 -5.51157 EX 55 970 -4 24 78
1996289N13280 1996 99 NA NA LILI 1996-10-28 18:00:00 ET 54.5000 -3.50000 55 970 hurdat_atl main 0 0 O_____________ hurdat_atl AL121996 54.5000 -3.50000 EX 55 970 -4 24 88
1996289N13280 1996 99 NA NA LILI 1996-10-28 21:00:00 ET 54.3687 -1.29467 main 0 0 P_____________ AL121996 54.3687 -1.29467 EX 55 973 -4 27 101
1996289N13280 1996 99 NA NA LILI 1996-10-29 00:00:00 ET 54.0000 1.00000 55 976 hurdat_atl main 68 O_____________ hurdat_atl AL121996 54.0000 1.00000 EX 55 976 -4 28 105

IBTrACS Databaseについて

本データベースは、米国NOAAが公開する1842年以降の世界の熱帯低気圧のベストトラックデータアーカイブInternational Best Track Archive for Climate Stewardship (IBTrACS)を、ウェブで閲覧しやすい形式に変換したものです。

最終更新日:2021-11-26